Time;durP1;ratioP1;P1;durP2;ratioP2;P2;SDS_P1;SDS_P2;PMS_P1;PMS_P2;Temp;Humidity;BMP_temperature;BMP_pressure;BME280_temperature;BME280_humidity;BME280_pressure;Samples;Min_cycle;Max_cycle;Signal;HPM_P1;HPM_P2
2023/09/10 14:13:28;;;;;;;1999.90;999.90;;;;;;;;;;5067122;27;20388;-78
2023/09/10 14:15:55;;;;;;;1999.90;999.90;;;;;;;;;;5059839;28;20051;-79
2023/09/10 14:18:21;;;;;;;1999.90;999.90;;;;;;;;;;5053806;28;20708;-80
2023/09/10 14:20:48;;;;;;;1999.90;999.90;;;;;;;;;;5059750;28;20048;-78
2023/09/10 14:23:15;;;;;;;1999.90;999.90;;;;;;;;;;5054556;28;20056;-79
2023/09/10 14:25:41;;;;;;;1999.90;999.90;;;;;;;;;;5056437;28;20056;-79
2023/09/10 14:28:08;;;;;;;1999.90;999.90;;;;;;;;;;5060886;28;20045;-79
2023/09/10 14:30:36;;;;;;;1999.90;999.90;;;;;;;;;;5058692;28;20068;-80
2023/09/10 14:33:03;;;;;;;1999.90;999.90;;;;;;;;;;5059154;28;20053;-79
2023/09/10 14:35:29;;;;;;;1999.90;999.90;;;;;;;;;;5054832;28;20049;-79
2023/09/10 14:37:56;;;;;;;1999.90;999.90;;;;;;;;;;5055523;28;20404;-79
2023/09/10 14:40:22;;;;;;;1999.90;999.90;;;;;;;;;;5056754;28;20052;-79
2023/09/10 14:42:49;;;;;;;1999.90;999.90;;;;;;;;;;5060936;28;20041;-79
2023/09/10 14:45:15;;;;;;;1999.90;999.90;;;;;;;;;;5061681;28;20053;-78
2023/09/10 14:47:43;;;;;;;1999.90;999.90;;;;;;;;;;5062366;28;20041;-83
2023/09/10 14:50:12;;;;;;;1999.90;999.90;;;;;;;;;;5049087;28;20422;-82
2023/09/10 14:52:40;;;;;;;1999.90;999.90;;;;;;;;;;5048634;28;20057;-80
2023/09/10 14:55:07;;;;;;;1999.90;999.90;;;;;;;;;;5048876;28;20045;-79
2023/09/10 14:57:34;;;;;;;1999.90;999.90;;;;;;;;;;5060820;28;20052;-79
2023/09/10 15:00:00;;;;;;;1999.90;999.90;;;;;;;;;;5059238;28;20055;-78
2023/09/10 15:02:27;;;;;;;1999.90;999.90;;;;;;;;;;5061148;28;20041;-80
2023/09/10 15:05:04;;;;;;;1999.90;999.90;;;;;;;;;;5064068;28;20052;-80
2023/09/10 15:07:31;;;;;;;1999.90;999.90;;;;;;;;;;5058961;28;20049;-80
2023/09/10 15:09:57;;;;;;;1999.90;999.90;;;;;;;;;;5060529;28;20060;-82
2023/09/10 15:12:24;;;;;;;1999.90;999.90;;;;;;;;;;5066131;28;20063;-79
2023/09/10 15:14:50;;;;;;;1999.90;999.90;;;;;;;;;;5054446;28;20382;-78
2023/09/10 15:17:17;;;;;;;1999.90;999.90;;;;;;;;;;5050263;28;20045;-79
2023/09/10 15:19:43;;;;;;;1999.90;999.90;;;;;;;;;;5050999;28;20049;-82
2023/09/10 15:22:11;;;;;;;1999.90;999.90;;;;;;;;;;5068480;28;20056;-79
2023/09/10 15:24:38;;;;;;;1999.90;999.90;;;;;;;;;;5052923;28;20053;-79
2023/09/10 15:27:05;;;;;;;1999.90;999.90;;;;;;;;;;5053894;28;20041;-79
2023/09/10 15:29:32;;;;;;;1999.90;999.90;;;;;;;;;;5037115;28;20079;-78
2023/09/10 15:31:58;;;;;;;1999.90;999.90;;;;;;;;;;5037315;28;20490;-80
2023/09/10 15:34:25;;;;;;;1999.90;999.90;;;;;;;;;;5055489;28;20045;-79
2023/09/10 15:36:51;;;;;;;1999.90;999.90;;;;;;;;;;5052469;28;20401;-79
2023/09/10 15:39:20;;;;;;;1999.90;999.90;;;;;;;;;;5035616;28;20416;-79
2023/09/10 15:41:47;;;;;;;1999.90;999.90;;;;;;;;;;5040779;28;20503;-82
2023/09/10 15:44:15;;;;;;;1999.90;999.90;;;;;;;;;;5049146;28;20102;-80
2023/09/10 15:46:41;;;;;;;1999.90;999.90;;;;;;;;;;5037771;28;20056;-80
2023/09/10 15:49:08;;;;;;;1999.90;999.90;;;;;;;;;;5037043;28;20050;-79
2023/09/10 15:51:35;;;;;;;1999.90;999.90;;;;;;;;;;5035116;28;20053;-79
2023/09/10 15:54:02;;;;;;;1999.90;999.90;;;;;;;;;;5041549;28;20045;-80
2023/09/10 15:56:30;;;;;;;1999.90;999.90;;;;;;;;;;5054639;28;20049;-84
2023/09/10 15:58:57;;;;;;;1999.90;999.90;;;;;;;;;;5054054;28;20045;-79
2023/09/10 16:01:23;;;;;;;1999.90;999.90;;;;;;;;;;5054447;28;20048;-82
2023/09/10 16:03:50;;;;;;;1999.90;999.90;;;;;;;;;;5054841;28;20049;-83
2023/09/10 16:07:03;;;;;;;1999.90;999.90;;;;;;;;;;5047915;28;20056;-79
2023/09/10 16:09:30;;;;;;;1999.90;999.90;;;;;;;;;;5034985;28;20053;-78
2023/09/10 16:11:58;;;;;;;1999.90;999.90;;;;;;;;;;5047917;28;20425;-78
2023/09/10 16:14:24;;;;;;;1999.90;999.90;;;;;;;;;;5054300;28;20089;-86
2023/09/10 16:16:51;;;;;;;1999.90;999.90;;;;;;;;;;5043845;28;20068;-79
2023/09/10 16:19:17;;;;;;;1999.90;999.90;;;;;;;;;;5049298;28;20048;-78
2023/09/10 16:21:44;;;;;;;1999.90;999.90;;;;;;;;;;5054475;28;20055;-79
2023/09/10 16:24:10;;;;;;;1999.90;999.90;;;;;;;;;;5054455;28;20485;-80
2023/09/10 16:26:37;;;;;;;1999.90;999.90;;;;;;;;;;5040771;28;20068;-80
2023/09/10 16:29:05;;;;;;;1999.90;999.90;;;;;;;;;;5046941;28;20045;-79
2023/09/10 16:31:32;;;;;;;1999.90;999.90;;;;;;;;;;5048819;28;20045;-80
2023/09/10 16:33:58;;;;;;;1999.90;999.90;;;;;;;;;;5050138;28;20329;-78
2023/09/10 16:36:41;;;;;;;1999.90;999.90;;;;;;;;;;5033695;28;20056;-79
2023/09/10 16:39:07;;;;;;;1999.90;999.90;;;;;;;;;;5044744;28;20104;-79
2023/09/10 16:41:34;;;;;;;1999.90;999.90;;;;;;;;;;5043746;28;20045;-85
2023/09/10 16:44:00;;;;;;;1999.90;999.90;;;;;;;;;;5053694;28;20127;-79
2023/09/10 16:46:29;;;;;;;1999.90;999.90;;;;;;;;;;5043871;28;20041;-79
2023/09/10 16:48:55;;;;;;;1999.90;999.90;;;;;;;;;;5054383;28;20067;-80
2023/09/10 16:51:23;;;;;;;1999.90;999.90;;;;;;;;;;5046808;28;20486;-79
2023/09/10 16:53:49;;;;;;;1999.90;999.90;;;;;;;;;;5038882;28;20053;-81
2023/09/10 16:56:16;;;;;;;1999.90;999.90;;;;;;;;;;5041204;28;20405;-81
2023/09/10 16:58:43;;;;;;;1999.90;999.90;;;;;;;;;;5043955;28;20114;-81
2023/09/10 17:01:13;;;;;;;1999.90;999.90;;;;;;;;;;5046776;28;20049;-80
2023/09/10 17:03:43;;;;;;;1999.90;999.90;;;;;;;;;;5037333;28;20049;-78
2023/09/10 17:06:10;;;;;;;1999.90;999.90;;;;;;;;;;5045054;28;20475;-78
2023/09/10 17:08:37;;;;;;;1999.90;999.90;;;;;;;;;;5053325;28;20053;-79
2023/09/10 17:11:03;;;;;;;1999.90;999.90;;;;;;;;;;5050943;28;20045;-80
2023/09/10 17:13:30;;;;;;;1999.90;999.90;;;;;;;;;;5050639;28;20057;-80
2023/09/10 17:16:01;;;;;;;1999.90;999.90;;;;;;;;;;5032857;28;20071;-79
2023/09/10 17:18:27;;;;;;;1999.90;999.90;;;;;;;;;;5041206;28;20041;-78
2023/09/10 17:20:55;;;;;;;1999.90;999.90;;;;;;;;;;5039167;28;20048;-80
2023/09/10 17:23:22;;;;;;;1999.90;999.90;;;;;;;;;;5046732;28;20059;-85
2023/09/10 17:25:48;;;;;;;1999.90;999.90;;;;;;;;;;5053005;28;20047;-85
2023/09/10 17:28:15;;;;;;;1999.90;999.90;;;;;;;;;;5051693;28;20049;-80
2023/09/10 17:30:41;;;;;;;1999.90;999.90;;;;;;;;;;5051520;28;20503;-78
2023/09/10 17:33:08;;;;;;;1999.90;999.90;;;;;;;;;;5053131;28;20041;-77
2023/09/10 17:35:35;;;;;;;1999.90;999.90;;;;;;;;;;5044686;28;20045;-80
2023/09/10 17:38:03;;;;;;;1999.90;999.90;;;;;;;;;;5044925;28;20410;-81
2023/09/10 17:40:30;;;;;;;1999.90;999.90;;;;;;;;;;5034832;28;20107;-83
2023/09/10 17:42:56;;;;;;;1999.90;999.90;;;;;;;;;;5032224;28;20445;-85
2023/09/10 17:45:27;;;;;;;1999.90;999.90;;;;;;;;;;5041675;28;20049;-83
2023/09/10 17:47:53;;;;;;;1999.90;999.90;;;;;;;;;;5050944;28;20112;-85
2023/09/10 17:50:20;;;;;;;1999.90;999.90;;;;;;;;;;5038259;28;20049;-80
2023/09/10 17:52:47;;;;;;;1999.90;999.90;;;;;;;;;;5051315;28;20133;-84
2023/09/10 17:55:15;;;;;;;1999.90;999.90;;;;;;;;;;5042064;28;20072;-83
2023/09/10 17:57:42;;;;;;;1999.90;999.90;;;;;;;;;;5051039;28;20071;-82
2023/09/10 18:00:09;;;;;;;1999.90;999.90;;;;;;;;;;5056824;28;20106;-82
2023/09/10 18:02:36;;;;;;;1999.90;999.90;;;;;;;;;;5043781;28;20088;-85
2023/09/10 18:05:03;;;;;;;1999.90;999.90;;;;;;;;;;5043800;28;20051;-85
2023/09/10 18:07:29;;;;;;;1999.90;999.90;;;;;;;;;;5038851;28;20049;-85
2023/09/10 18:09:56;;;;;;;1999.90;999.90;;;;;;;;;;5037109;28;20056;-81
2023/09/10 18:12:24;;;;;;;1999.90;999.90;;;;;;;;;;5043585;28;20053;-83
2023/09/10 18:14:51;;;;;;;1999.90;999.90;;;;;;;;;;5044421;28;20049;-84
2023/09/10 18:17:18;;;;;;;1999.90;999.90;;;;;;;;;;5042165;28;20045;-82
2023/09/10 18:19:45;;;;;;;1999.90;999.90;;;;;;;;;;5055603;28;20055;-80
2023/09/10 18:22:11;;;;;;;1999.90;999.90;;;;;;;;;;5053953;28;20051;-82
2023/09/10 18:24:38;;;;;;;1999.90;999.90;;;;;;;;;;5042470;28;20128;-83
2023/09/10 18:27:05;;;;;;;1999.90;999.90;;;;;;;;;;5047065;28;20051;-83
2023/09/10 18:29:33;;;;;;;1999.90;999.90;;;;;;;;;;5048921;28;20056;-83
2023/09/10 18:31:59;;;;;;;1999.90;999.90;;;;;;;;;;5042937;28;20046;-82
2023/09/10 18:34:26;;;;;;;1999.90;999.90;;;;;;;;;;5043158;28;20049;-83
2023/09/10 18:36:58;;;;;;;1999.90;999.90;;;;;;;;;;5039688;28;20490;-82
2023/09/10 18:39:25;;;;;;;1999.90;999.90;;;;;;;;;;5043711;28;20045;-83
2023/09/10 18:41:51;;;;;;;1999.90;999.90;;;;;;;;;;5050668;28;20045;-84
2023/09/10 18:44:18;;;;;;;1999.90;999.90;;;;;;;;;;5047636;28;20060;-82
2023/09/10 18:46:53;;;;;;;1999.90;999.90;;;;;;;;;;5043968;28;20053;-84
2023/09/10 18:49:19;;;;;;;1999.90;999.90;;;;;;;;;;5042361;28;20115;-83
2023/09/10 18:52:01;;;;;;;1999.90;999.90;;;;;;;;;;5044997;28;20128;-83
2023/09/10 18:54:28;;;;;;;1999.90;999.90;;;;;;;;;;5046030;28;20048;-83
2023/09/10 18:56:54;;;;;;;1999.90;999.90;;;;;;;;;;5038689;28;20051;-82
2023/09/10 18:59:22;;;;;;;1999.90;999.90;;;;;;;;;;5045168;28;20053;-83
2023/09/10 19:01:50;;;;;;;1999.90;999.90;;;;;;;;;;5049721;28;20045;-84
2023/09/10 19:04:17;;;;;;;1999.90;999.90;;;;;;;;;;5051891;28;20046;-84
2023/09/10 19:06:43;;;;;;;1999.90;999.90;;;;;;;;;;5044035;28;20888;-83
2023/09/10 19:09:10;;;;;;;1999.90;999.90;;;;;;;;;;5045810;28;20136;-84
2023/09/10 19:11:36;;;;;;;1999.90;999.90;;;;;;;;;;5050467;28;20056;-84
2023/09/10 19:14:03;;;;;;;1999.90;999.90;;;;;;;;;;5049142;28;20081;-84
2023/09/10 19:16:31;;;;;;;1999.90;999.90;;;;;;;;;;5048058;28;20056;-83
2023/09/10 19:18:58;;;;;;;1999.90;999.90;;;;;;;;;;5047758;28;20037;-83
2023/09/10 19:21:25;;;;;;;1999.90;999.90;;;;;;;;;;5048523;28;20049;-84
2023/09/10 19:23:51;;;;;;;1999.90;999.90;;;;;;;;;;5044308;28;20144;-84
2023/09/10 19:26:18;;;;;;;1999.90;999.90;;;;;;;;;;5053627;28;20049;-84
2023/09/10 19:28:44;;;;;;;1999.90;999.90;;;;;;;;;;5051566;28;20041;-85
2023/09/10 19:31:11;;;;;;;1999.90;999.90;;;;;;;;;;5046077;28;20048;-83
2023/09/10 19:33:38;;;;;;;1999.90;999.90;;;;;;;;;;5048701;28;20049;-82
2023/09/10 19:36:07;;;;;;;1999.90;999.90;;;;;;;;;;5042536;28;20096;-83
2023/09/10 19:38:34;;;;;;;1999.90;999.90;;;;;;;;;;5045024;28;20042;-81
2023/09/10 19:41:00;;;;;;;1999.90;999.90;;;;;;;;;;5050254;28;20052;-84
2023/09/10 19:43:27;;;;;;;1999.90;999.90;;;;;;;;;;5045460;28;20041;-84
2023/09/10 19:45:53;;;;;;;1999.90;999.90;;;;;;;;;;5052322;28;20076;-83
2023/09/10 19:48:20;;;;;;;1999.90;999.90;;;;;;;;;;5049995;28;20425;-81
2023/09/10 19:50:46;;;;;;;1999.90;999.90;;;;;;;;;;5051863;28;20041;-83
2023/09/10 19:53:14;;;;;;;1999.90;999.90;;;;;;;;;;5053341;28;20075;-82
2023/09/10 19:55:41;;;;;;;1999.90;999.90;;;;;;;;;;5049837;28;20495;-84
2023/09/10 19:58:07;;;;;;;1999.90;999.90;;;;;;;;;;5049708;28;20136;-83
2023/09/10 20:00:34;;;;;;;1999.90;999.90;;;;;;;;;;5057295;28;20486;-85
2023/09/10 20:03:00;;;;;;;1999.90;999.90;;;;;;;;;;5052389;28;20051;-83
2023/09/10 20:05:27;;;;;;;1999.90;999.90;;;;;;;;;;5050271;28;20049;-84
2023/09/10 20:07:53;;;;;;;1999.90;999.90;;;;;;;;;;5045921;28;20059;-84
2023/09/10 20:10:23;;;;;;;1999.90;999.90;;;;;;;;;;5043156;28;20064;-84
2023/09/10 20:12:49;;;;;;;1999.90;999.90;;;;;;;;;;5042774;28;20137;-83
2023/09/10 20:15:16;;;;;;;1999.90;999.90;;;;;;;;;;5047842;28;20049;-83
2023/09/10 20:17:42;;;;;;;1999.90;999.90;;;;;;;;;;5042160;28;20045;-83
2023/09/10 20:20:09;;;;;;;1999.90;999.90;;;;;;;;;;5044598;28;20484;-83
2023/09/10 20:22:36;;;;;;;1999.90;999.90;;;;;;;;;;5048733;28;20105;-84
2023/09/10 20:25:03;;;;;;;1999.90;999.90;;;;;;;;;;5048200;28;20049;-83
2023/09/10 20:27:32;;;;;;;1999.90;999.90;;;;;;;;;;5056505;28;20061;-84
2023/09/10 20:29:58;;;;;;;1999.90;999.90;;;;;;;;;;5064654;28;20040;-85
2023/09/10 20:32:27;;;;;;;1999.90;999.90;;;;;;;;;;5055368;28;20041;-83
2023/09/10 20:34:58;;;;;;;1999.90;999.90;;;;;;;;;;5044739;28;20049;-83
2023/09/10 20:37:25;;;;;;;1999.90;999.90;;;;;;;;;;5044306;28;20071;-84
2023/09/10 20:39:55;;;;;;;1999.90;999.90;;;;;;;;;;5046013;28;20045;-85
2023/09/10 20:42:21;;;;;;;1999.90;999.90;;;;;;;;;;5039877;28;20524;-85
2023/09/10 20:44:49;;;;;;;1999.90;999.90;;;;;;;;;;5042055;28;20049;-85
2023/09/10 20:47:16;;;;;;;1999.90;999.90;;;;;;;;;;5045475;28;20420;-85
2023/09/10 20:49:42;;;;;;;1999.90;999.90;;;;;;;;;;5043631;28;20080;-85
2023/09/10 20:52:09;;;;;;;1999.90;999.90;;;;;;;;;;5040799;28;20044;-85
2023/09/10 20:54:35;;;;;;;1999.90;999.90;;;;;;;;;;5042564;28;20059;-83
2023/09/10 20:57:04;;;;;;;1999.90;999.90;;;;;;;;;;5042705;28;20052;-84
2023/09/10 20:59:30;;;;;;;1999.90;999.90;;;;;;;;;;5038283;28;20053;-85
2023/09/10 21:01:58;;;;;;;1999.90;999.90;;;;;;;;;;5043476;28;20063;-86
2023/09/10 21:04:25;;;;;;;1999.90;999.90;;;;;;;;;;5040657;28;20052;-84
2023/09/10 21:06:51;;;;;;;1999.90;999.90;;;;;;;;;;5035241;28;20048;-85
2023/09/10 21:09:18;;;;;;;1999.90;999.90;;;;;;;;;;5035932;28;20502;-85
2023/09/10 21:11:44;;;;;;;1999.90;999.90;;;;;;;;;;5038391;28;20164;-85
2023/09/10 21:14:11;;;;;;;1999.90;999.90;;;;;;;;;;5038225;28;20754;-85
2023/09/10 21:16:38;;;;;;;1999.90;999.90;;;;;;;;;;5037584;28;20056;-85
2023/09/10 21:19:05;;;;;;;1999.90;999.90;;;;;;;;;;5037839;28;20043;-85
2023/09/10 21:21:32;;;;;;;1999.90;999.90;;;;;;;;;;5037198;28;20051;-85
2023/09/10 21:23:58;;;;;;;1999.90;999.90;;;;;;;;;;5039585;28;20045;-84
2023/09/10 21:26:25;;;;;;;1999.90;999.90;;;;;;;;;;5042369;28;20053;-85
2023/09/10 21:28:51;;;;;;;1999.90;999.90;;;;;;;;;;5040989;28;20037;-85
2023/09/10 21:31:18;;;;;;;1999.90;999.90;;;;;;;;;;5042515;28;20051;-84
2023/09/10 21:33:44;;;;;;;1999.90;999.90;;;;;;;;;;5036844;28;20064;-85
2023/09/10 21:36:12;;;;;;;1999.90;999.90;;;;;;;;;;5036547;28;20421;-85
2023/09/10 21:38:39;;;;;;;1999.90;999.90;;;;;;;;;;5036282;28;20060;-86
2023/09/10 21:41:06;;;;;;;1999.90;999.90;;;;;;;;;;5039179;28;20049;-85
2023/09/10 21:43:32;;;;;;;1999.90;999.90;;;;;;;;;;5040758;28;20404;-85
2023/09/10 21:46:05;;;;;;;1999.90;999.90;;;;;;;;;;5036358;28;20041;-85
2023/09/10 21:48:31;;;;;;;1999.90;999.90;;;;;;;;;;5041870;28;20409;-85
2023/09/10 21:50:58;;;;;;;1999.90;999.90;;;;;;;;;;5038677;28;20045;-84
2023/09/10 21:53:26;;;;;;;1999.90;999.90;;;;;;;;;;5037552;28;20478;-85
2023/09/10 21:55:52;;;;;;;1999.90;999.90;;;;;;;;;;5035681;28;20056;-84
2023/09/10 21:58:19;;;;;;;1999.90;999.90;;;;;;;;;;5039061;28;20486;-84
2023/09/10 22:00:45;;;;;;;1999.90;999.90;;;;;;;;;;5036560;28;20046;-85
2023/09/10 22:03:12;;;;;;;1999.90;999.90;;;;;;;;;;5039240;28;20131;-85
2023/09/10 22:05:38;;;;;;;1999.90;999.90;;;;;;;;;;5039395;28;20404;-84
2023/09/10 22:08:05;;;;;;;1999.90;999.90;;;;;;;;;;5036677;28;20046;-84
2023/09/10 22:10:35;;;;;;;1999.90;999.90;;;;;;;;;;5038181;28;20049;-85
2023/09/10 22:13:02;;;;;;;1999.90;999.90;;;;;;;;;;5038525;28;20049;-85
2023/09/10 22:15:28;;;;;;;1999.90;999.90;;;;;;;;;;5040496;28;20055;-85
2023/09/10 22:17:55;;;;;;;1999.90;999.90;;;;;;;;;;5036555;28;20099;-85
2023/09/10 22:20:22;;;;;;;1999.90;999.90;;;;;;;;;;5040059;28;20537;-85
2023/09/10 22:22:50;;;;;;;1999.90;999.90;;;;;;;;;;5035462;28;20050;-85
2023/09/10 22:25:17;;;;;;;1999.90;999.90;;;;;;;;;;5038256;28;20088;-84
2023/09/10 22:27:45;;;;;;;1999.90;999.90;;;;;;;;;;5040276;28;20050;-85
2023/09/10 22:30:13;;;;;;;1999.90;999.90;;;;;;;;;;5034849;28;20485;-85
2023/09/10 22:32:39;;;;;;;1999.90;999.90;;;;;;;;;;5033557;28;20056;-83
2023/09/10 22:35:07;;;;;;;1999.90;999.90;;;;;;;;;;5045978;28;20523;-85
2023/09/10 22:37:34;;;;;;;1999.90;999.90;;;;;;;;;;5037704;28;20056;-85
2023/09/10 22:40:01;;;;;;;1999.90;999.90;;;;;;;;;;5042131;28;20050;-85
2023/09/10 22:42:27;;;;;;;1999.90;999.90;;;;;;;;;;5042166;28;20049;-84
2023/09/10 22:44:55;;;;;;;1999.90;999.90;;;;;;;;;;5045061;28;20405;-85
2023/09/10 22:47:21;;;;;;;1999.90;999.90;;;;;;;;;;5042565;28;20049;-85
2023/09/10 22:49:48;;;;;;;1999.90;999.90;;;;;;;;;;5042214;28;20049;-84
2023/09/10 22:52:14;;;;;;;1999.90;999.90;;;;;;;;;;5041554;28;20056;-84
2023/09/10 22:54:41;;;;;;;1999.90;999.90;;;;;;;;;;5040658;28;20580;-84
2023/09/10 22:57:07;;;;;;;1999.90;999.90;;;;;;;;;;5041534;28;20049;-85
2023/09/10 22:59:34;;;;;;;1999.90;999.90;;;;;;;;;;5043600;28;20053;-85
2023/09/10 23:02:02;;;;;;;1999.90;999.90;;;;;;;;;;5042008;28;20686;-84
2023/09/10 23:04:28;;;;;;;1999.90;999.90;;;;;;;;;;5041104;28;20050;-85
2023/09/10 23:06:55;;;;;;;1999.90;999.90;;;;;;;;;;5042513;28;20041;-86
2023/09/10 23:09:21;;;;;;;1999.90;999.90;;;;;;;;;;5045671;28;20612;-85
2023/09/10 23:11:48;;;;;;;1999.90;999.90;;;;;;;;;;5043767;28;20053;-85
2023/09/10 23:14:14;;;;;;;1999.90;999.90;;;;;;;;;;5041592;28;20057;-84
2023/09/10 23:16:41;;;;;;;1999.90;999.90;;;;;;;;;;5043438;28;20048;-85
2023/09/10 23:19:09;;;;;;;1999.90;999.90;;;;;;;;;;5046288;28;20099;-86
2023/09/10 23:21:36;;;;;;;1999.90;999.90;;;;;;;;;;5038674;28;20051;-85
2023/09/10 23:24:03;;;;;;;1999.90;999.90;;;;;;;;;;5042692;28;20504;-84
2023/09/10 23:26:29;;;;;;;1999.90;999.90;;;;;;;;;;5043029;28;20136;-85
2023/09/10 23:28:56;;;;;;;1999.90;999.90;;;;;;;;;;5042377;28;20417;-84
2023/09/10 23:31:22;;;;;;;1999.90;999.90;;;;;;;;;;5037837;28;20075;-85
2023/09/10 23:33:49;;;;;;;1999.90;999.90;;;;;;;;;;5039990;28;20498;-85
2023/09/10 23:36:17;;;;;;;1999.90;999.90;;;;;;;;;;5041820;28;20068;-86
2023/09/10 23:38:43;;;;;;;1999.90;999.90;;;;;;;;;;5038310;28;20508;-85
2023/09/10 23:41:10;;;;;;;1999.90;999.90;;;;;;;;;;5043014;28;20050;-85
2023/09/10 23:43:38;;;;;;;1999.90;999.90;;;;;;;;;;5040058;28;20132;-84
2023/09/10 23:46:05;;;;;;;1999.90;999.90;;;;;;;;;;5039093;28;20051;-84
2023/09/10 23:48:31;;;;;;;1999.90;999.90;;;;;;;;;;5043505;28;20429;-85
2023/09/10 23:50:58;;;;;;;1999.90;999.90;;;;;;;;;;5045900;28;20119;-86
2023/09/10 23:53:26;;;;;;;1999.90;999.90;;;;;;;;;;5043616;28;20616;-84
2023/09/10 23:55:53;;;;;;;1999.90;999.90;;;;;;;;;;5039749;28;20514;-84
2023/09/10 23:58:19;;;;;;;1999.90;999.90;;;;;;;;;;5042851;28;20056;-85
